createdAt,value
2023-02-06T00:00:44.027Z,68.74
2023-02-06T00:03:50.912Z,68.65
2023-02-06T00:06:59.406Z,68.70
2023-02-06T00:10:06.297Z,68.68
2023-02-06T00:13:12.409Z,68.84
2023-02-06T00:16:21.373Z,69.13
2023-02-06T00:19:27.385Z,69.42
2023-02-06T00:22:37.182Z,69.45
2023-02-06T00:25:43.149Z,69.78
2023-02-06T00:28:50.609Z,69.63
2023-02-06T00:31:56.892Z,70.01
2023-02-06T00:35:11.125Z,69.85
2023-02-06T00:38:22.345Z,70.16
2023-02-06T00:41:29.126Z,70.22
2023-02-06T00:44:35.054Z,70.10
2023-02-06T00:47:41.855Z,70.95
2023-02-06T00:50:50.494Z,71.97
2023-02-06T00:53:59.978Z,71.69
2023-02-06T00:57:05.895Z,71.28
2023-02-06T01:00:16.041Z,71.27
2023-02-06T01:03:21.912Z,72.33
2023-02-06T01:06:28.769Z,72.22
2023-02-06T01:09:37.401Z,71.60
2023-02-06T01:12:44.298Z,71.50
2023-02-06T01:15:52.163Z,71.03
2023-02-06T01:18:59.367Z,70.95
2023-02-06T01:22:05.351Z,70.55
2023-02-06T01:25:14.905Z,70.34
2023-02-06T01:28:21.165Z,70.85
2023-02-06T01:31:32.025Z,70.56
2023-02-06T01:34:37.919Z,70.90
2023-02-06T01:37:45.323Z,70.39
2023-02-06T01:41:00.371Z,70.91
2023-02-06T01:44:22.702Z,71.29
2023-02-06T01:47:30.396Z,71.10
2023-02-06T01:50:40.367Z,71.01
2023-02-06T01:53:56.792Z,70.78
2023-02-06T01:57:14.545Z,70.50
2023-02-06T02:00:27.640Z,70.79
2023-02-06T02:03:39.997Z,70.93
2023-02-06T02:06:47.461Z,70.86
2023-02-06T02:09:58.749Z,70.70
2023-02-06T02:13:17.603Z,70.40
2023-02-06T02:16:39.770Z,70.71
2023-02-06T02:20:48.869Z,70.49
2023-02-06T02:24:07.943Z,70.74
2023-02-06T02:27:47.772Z,70.14
2023-02-06T02:31:41.318Z,70.41
2023-02-06T02:35:25.765Z,70.94
2023-02-06T02:38:55.057Z,70.66
2023-02-06T02:42:14.743Z,70.24
2023-02-06T02:45:33.329Z,70.71
2023-02-06T02:48:47.246Z,70.35
2023-02-06T02:51:58.666Z,70.08
2023-02-06T02:55:23.603Z,70.07
2023-02-06T02:58:44.796Z,70.43
2023-02-06T03:02:02.637Z,70.35
2023-02-06T03:05:14.754Z,70.34
2023-02-06T03:08:47.145Z,70.56
2023-02-06T03:12:14.670Z,70.56
2023-02-06T03:15:34.942Z,70.53
2023-02-06T03:18:50.078Z,70.28
2023-02-06T03:21:57.001Z,70.76
2023-02-06T03:25:13.316Z,71.19
2023-02-06T03:28:31.164Z,71.31
2023-02-06T03:31:45.882Z,71.57
2023-02-06T03:35:06.465Z,71.85
2023-02-06T03:38:13.860Z,71.63
2023-02-06T03:41:34.969Z,71.72
2023-02-06T03:44:57.520Z,71.37
2023-02-06T03:48:18.294Z,71.36
2023-02-06T03:51:31.919Z,71.78
2023-02-06T03:54:46.100Z,72.51
2023-02-06T03:58:09.031Z,72.50
2023-02-06T04:01:17.540Z,72.79
2023-02-06T04:04:29.372Z,72.94
2023-02-06T04:07:43.063Z,73.19
2023-02-06T04:10:49.546Z,73.26
2023-02-06T04:13:58.920Z,73.23
2023-02-06T04:17:09.799Z,73.75
2023-02-06T04:20:17.106Z,73.67
2023-02-06T04:23:24.291Z,73.78
2023-02-06T04:26:31.201Z,74.07
2023-02-06T04:29:39.724Z,73.85
2023-02-06T04:32:46.786Z,73.91
2023-02-06T04:35:52.726Z,73.89
2023-02-06T04:38:59.549Z,73.66
2023-02-06T04:42:05.836Z,73.32
2023-02-06T04:45:15.745Z,73.41
2023-02-06T04:48:24.714Z,73.74
2023-02-06T04:51:31.491Z,73.30
2023-02-06T04:54:37.459Z,72.72
2023-02-06T04:57:44.539Z,73.02
2023-02-06T05:00:58.452Z,73.17
2023-02-06T05:04:05.460Z,73.04
2023-02-06T05:07:11.379Z,73.29
2023-02-06T05:10:18.691Z,73.06
2023-02-06T05:13:30.480Z,73.08
2023-02-06T05:16:39.901Z,73.52
2023-02-06T05:19:46.119Z,73.56
2023-02-06T05:22:52.902Z,73.47
2023-02-06T05:25:59.806Z,72.94
2023-02-06T05:29:27.770Z,72.51
2023-02-06T05:32:36.266Z,72.41
2023-02-06T05:35:43.904Z,72.24
2023-02-06T05:38:54.122Z,72.00
2023-02-06T05:42:00.960Z,71.96
2023-02-06T05:45:08.586Z,72.19
2023-02-06T05:48:17.933Z,72.94
2023-02-06T05:51:23.778Z,73.07
2023-02-06T05:54:30.615Z,73.22
2023-02-06T05:57:36.693Z,73.40
2023-02-06T06:00:51.493Z,73.73
2023-02-06T06:04:09.723Z,73.67
2023-02-06T06:07:16.691Z,73.65
2023-02-06T06:10:22.940Z,72.92
2023-02-06T06:13:30.611Z,72.33
2023-02-06T06:16:41.788Z,72.11
2023-02-06T06:19:51.225Z,72.34
2023-02-06T06:22:57.338Z,72.67
2023-02-06T06:26:04.139Z,72.96
2023-02-06T06:29:15.179Z,72.69
2023-02-06T06:32:22.488Z,72.28
2023-02-06T06:35:31.180Z,71.93
2023-02-06T06:38:38.707Z,71.59
2023-02-06T06:41:44.950Z,71.39
2023-02-06T06:44:51.799Z,71.30
2023-02-06T06:47:57.914Z,71.00
2023-02-06T06:51:07.841Z,70.75
2023-02-06T06:54:14.702Z,70.48
2023-02-06T06:57:23.828Z,68.99
2023-02-06T07:00:41.422Z,69.08
2023-02-06T07:03:49.265Z,68.34
2023-02-06T07:06:57.877Z,67.30
2023-02-06T07:10:04.867Z,66.81
2023-02-06T07:13:11.027Z,65.93
2023-02-06T07:16:17.910Z,65.74
2023-02-06T07:19:24.308Z,66.37
2023-02-06T07:22:51.528Z,68.91
2023-02-06T07:26:08.902Z,64.99
2023-02-06T07:29:27.213Z,64.74
2023-02-06T07:32:33.999Z,65.03
2023-02-06T07:35:39.853Z,64.33
2023-02-06T07:38:51.249Z,64.48
2023-02-06T07:41:57.290Z,64.54
2023-02-06T07:45:17.152Z,64.49
2023-02-06T07:48:23.215Z,65.28
2023-02-06T07:51:33.042Z,64.10
2023-02-06T07:54:41.643Z,63.23
2023-02-06T07:57:48.490Z,62.01
2023-02-06T08:00:54.963Z,61.95
2023-02-06T08:04:08.897Z,61.05
2023-02-06T08:07:16.713Z,60.32
2023-02-06T08:10:32.929Z,61.12
2023-02-06T08:13:43.070Z,59.91
2023-02-06T08:16:49.884Z,58.33
2023-02-06T08:20:06.837Z,57.77
2023-02-06T08:23:13.607Z,56.11
2023-02-06T08:26:22.380Z,54.88
2023-02-06T08:29:30.041Z,53.90
2023-02-06T08:32:39.481Z,53.45
2023-02-06T08:35:52.378Z,53.26
2023-02-06T08:39:09.873Z,52.02
2023-02-06T08:42:19.273Z,50.12
2023-02-06T08:45:30.426Z,48.49
2023-02-06T08:48:37.248Z,46.36
2023-02-06T08:51:44.372Z,44.09
2023-02-06T08:54:54.135Z,43.87
2023-02-06T08:58:08.901Z,42.45
2023-02-06T09:01:26.731Z,41.14
2023-02-06T09:04:35.759Z,40.06
2023-02-06T09:07:42.514Z,40.41
2023-02-06T09:10:48.420Z,39.59
2023-02-06T09:14:01.303Z,38.74
2023-02-06T09:17:07.478Z,38.46
2023-02-06T09:20:14.585Z,39.52
2023-02-06T09:23:20.826Z,39.20
2023-02-06T09:26:30.918Z,39.07
2023-02-06T09:29:39.670Z,39.16
2023-02-06T09:32:46.707Z,39.38
2023-02-06T09:35:52.746Z,39.88
2023-02-06T09:39:00.796Z,41.69
2023-02-06T09:42:15.072Z,41.28
2023-02-06T09:45:30.395Z,39.85
2023-02-06T09:48:42.325Z,39.47
2023-02-06T09:52:29.240Z,38.30
2023-02-06T09:55:47.511Z,36.97
2023-02-06T09:59:07.541Z,37.78
2023-02-06T10:02:47.932Z,37.19
2023-02-06T10:06:14.381Z,37.96
2023-02-06T10:09:31.612Z,37.04
2023-02-06T10:12:47.995Z,36.49
2023-02-06T10:16:02.286Z,36.94
2023-02-06T10:19:24.472Z,37.52
2023-02-06T10:22:42.071Z,37.98
2023-02-06T10:26:17.590Z,36.50
2023-02-06T10:29:31.876Z,37.35
2023-02-06T10:32:54.198Z,36.99
2023-02-06T10:36:25.617Z,36.91
2023-02-06T10:40:04.361Z,36.58
2023-02-06T10:43:29.354Z,37.93
2023-02-06T10:46:48.433Z,40.54
2023-02-06T10:50:05.050Z,41.04
2023-02-06T10:53:25.112Z,41.63
2023-02-06T10:56:38.804Z,43.02
2023-02-06T10:59:57.740Z,43.18
2023-02-06T11:03:11.015Z,44.31
2023-02-06T11:06:26.008Z,45.30
2023-02-06T11:09:40.245Z,45.05
2023-02-06T11:13:03.944Z,43.61
2023-02-06T11:16:23.660Z,42.15
2023-02-06T11:19:40.603Z,42.02
2023-02-06T11:22:53.012Z,41.27
2023-02-06T11:26:17.493Z,38.87
2023-02-06T11:29:30.000Z,38.51
2023-02-06T11:32:52.901Z,37.84
2023-02-06T11:36:33.021Z,36.16
2023-02-06T11:39:42.608Z,35.74
2023-02-06T11:42:55.664Z,35.57
2023-02-06T11:46:21.615Z,35.39
2023-02-06T11:49:31.945Z,36.87
2023-02-06T11:52:38.983Z,36.66
2023-02-06T11:55:45.623Z,36.51
2023-02-06T11:59:14.890Z,36.08
2023-02-06T12:02:36.674Z,35.44
2023-02-06T12:05:47.357Z,36.11
2023-02-06T12:08:56.620Z,35.83
2023-02-06T12:12:13.331Z,36.04
2023-02-06T12:15:45.369Z,36.24
2023-02-06T12:19:00.683Z,37.64
2023-02-06T12:22:21.613Z,37.69
2023-02-06T12:25:36.107Z,38.03
2023-02-06T12:28:57.827Z,38.10
2023-02-06T12:32:18.379Z,39.56
2023-02-06T12:35:45.425Z,39.17
2023-02-06T12:39:01.304Z,38.77
2023-02-06T12:42:37.218Z,38.26
2023-02-06T12:45:55.211Z,39.68
2023-02-06T12:49:18.831Z,38.85
2023-02-06T12:52:34.579Z,39.09
2023-02-06T12:56:00.631Z,40.01
2023-02-06T13:00:10.960Z,40.49
2023-02-06T13:03:30.446Z,39.34
2023-02-06T13:07:02.727Z,39.12
2023-02-06T13:10:30.057Z,39.94
2023-02-06T13:13:43.749Z,39.33
2023-02-06T13:16:58.435Z,39.93
2023-02-06T13:20:17.860Z,39.76
2023-02-06T13:23:29.568Z,40.93
2023-02-06T13:27:16.728Z,40.18
2023-02-06T13:30:51.070Z,39.98
2023-02-06T13:34:04.443Z,40.35
2023-02-06T13:37:30.925Z,40.98
2023-02-06T13:40:40.825Z,41.79
2023-02-06T13:43:57.111Z,42.35
2023-02-06T13:47:34.885Z,42.83
2023-02-06T13:51:17.028Z,44.88
2023-02-06T13:55:06.218Z,46.66
2023-02-06T13:58:48.808Z,47.95
2023-02-06T14:01:57.611Z,48.47
2023-02-06T14:05:07.991Z,49.33
2023-02-06T14:08:30.588Z,49.75
2023-02-06T14:12:17.997Z,50.50
2023-02-06T14:15:45.143Z,50.55
2023-02-06T14:19:09.075Z,51.18
2023-02-06T14:22:38.189Z,51.75
2023-02-06T14:26:16.000Z,51.84
2023-02-06T14:29:49.069Z,51.56
2023-02-06T14:33:19.625Z,51.64
2023-02-06T14:37:04.001Z,52.05
2023-02-06T14:40:22.674Z,51.54
2023-02-06T14:43:38.278Z,52.24
2023-02-06T14:46:45.297Z,52.56
2023-02-06T14:49:58.331Z,52.57
2023-02-06T14:53:12.632Z,53.17
2023-02-06T14:56:27.165Z,52.98
2023-02-06T14:59:34.129Z,53.49
2023-02-06T15:02:41.328Z,53.25
2023-02-06T15:05:50.448Z,52.30
2023-02-06T15:08:57.761Z,52.85
2023-02-06T15:12:21.536Z,53.02
2023-02-06T15:15:32.357Z,52.92
2023-02-06T15:18:40.449Z,53.20
2023-02-06T15:21:50.927Z,53.17
2023-02-06T15:25:22.112Z,53.72
2023-02-06T15:28:33.914Z,54.23
2023-02-06T15:31:39.988Z,54.00
2023-02-06T15:34:49.916Z,54.07
2023-02-06T15:37:59.731Z,54.09
2023-02-06T15:41:11.632Z,54.18
2023-02-06T15:44:31.276Z,54.97
2023-02-06T15:47:39.280Z,54.91
2023-02-06T15:50:57.359Z,55.73
2023-02-06T15:54:23.851Z,55.44
2023-02-06T15:57:36.657Z,56.71
2023-02-06T16:00:45.625Z,56.42
2023-02-06T16:04:01.476Z,56.60
2023-02-06T16:07:19.367Z,56.64
2023-02-06T16:10:32.120Z,57.00
2023-02-06T16:13:40.216Z,57.25
2023-02-06T16:17:01.363Z,57.38
2023-02-06T16:20:33.407Z,57.79
2023-02-06T16:23:49.850Z,58.16
2023-02-06T16:26:59.499Z,58.57
2023-02-06T16:30:06.356Z,58.48
2023-02-06T16:33:28.961Z,59.10
2023-02-06T16:36:36.411Z,58.83
2023-02-06T16:39:45.541Z,58.99
2023-02-06T16:42:54.319Z,59.77
2023-02-06T16:46:02.872Z,60.09
2023-02-06T16:49:15.148Z,59.84
2023-02-06T16:52:28.473Z,60.44
2023-02-06T16:55:34.699Z,60.59
2023-02-06T16:58:46.729Z,60.89
2023-02-06T17:01:52.840Z,60.85
2023-02-06T17:05:00.008Z,61.18
2023-02-06T17:08:16.579Z,61.36
2023-02-06T17:11:23.437Z,61.56
2023-02-06T17:14:34.896Z,61.73
2023-02-06T17:17:43.032Z,61.81
2023-02-06T17:20:53.731Z,61.65
2023-02-06T17:24:00.657Z,61.92
2023-02-06T17:27:07.467Z,62.01
2023-02-06T17:30:22.837Z,62.25
2023-02-06T17:33:28.962Z,62.29
2023-02-06T17:36:39.804Z,62.54
2023-02-06T17:39:45.866Z,62.79
2023-02-06T17:42:53.787Z,62.56
2023-02-06T17:46:02.528Z,62.87
2023-02-06T17:49:09.558Z,63.00
2023-02-06T17:52:16.488Z,63.15
2023-02-06T17:55:24.020Z,63.51
2023-02-06T17:58:33.464Z,63.39
2023-02-06T18:01:43.373Z,63.75
2023-02-06T18:04:53.613Z,63.92
2023-02-06T18:08:01.192Z,63.76
2023-02-06T18:11:12.304Z,64.08
2023-02-06T18:14:21.103Z,64.20
2023-02-06T18:17:31.129Z,64.67
2023-02-06T18:20:39.449Z,64.46
2023-02-06T18:23:46.591Z,64.74
2023-02-06T18:26:53.487Z,65.51
2023-02-06T18:29:59.870Z,66.81
2023-02-06T18:33:09.649Z,67.19
2023-02-06T18:36:15.945Z,67.44
2023-02-06T18:39:23.400Z,67.52
2023-02-06T18:42:42.872Z,67.67
2023-02-06T18:46:10.203Z,67.84
2023-02-06T18:49:33.541Z,67.70
2023-02-06T18:52:54.408Z,67.55
2023-02-06T18:56:18.754Z,67.75
2023-02-06T18:59:42.668Z,67.82
2023-02-06T19:03:03.632Z,67.82
2023-02-06T19:06:32.148Z,67.59
2023-02-06T19:10:00.888Z,69.22
2023-02-06T19:13:21.513Z,69.79
2023-02-06T19:16:47.555Z,69.58
2023-02-06T19:20:11.081Z,69.20
2023-02-06T19:23:35.145Z,69.50
2023-02-06T19:26:56.734Z,69.75
2023-02-06T19:30:17.977Z,70.05
2023-02-06T19:33:43.837Z,69.04
2023-02-06T19:37:04.708Z,69.71
2023-02-06T19:40:28.119Z,70.79
2023-02-06T19:43:49.554Z,71.43
2023-02-06T19:47:10.366Z,71.23
2023-02-06T19:50:31.170Z,71.62
2023-02-06T19:53:53.844Z,71.24
2023-02-06T19:57:19.591Z,70.97
2023-02-06T20:00:40.610Z,70.76
2023-02-06T20:04:04.081Z,71.04
2023-02-06T20:07:24.878Z,70.31
2023-02-06T20:10:45.769Z,70.58
2023-02-06T20:14:09.617Z,70.40
2023-02-06T20:17:33.179Z,70.15
2023-02-06T20:20:53.956Z,69.74
2023-02-06T20:24:25.477Z,70.38
2023-02-06T20:27:46.298Z,70.77
2023-02-06T20:31:14.731Z,71.91
2023-02-06T20:34:36.154Z,72.12
2023-02-06T20:38:08.884Z,72.83
2023-02-06T20:41:33.164Z,72.97
2023-02-06T20:44:54.032Z,73.92
2023-02-06T20:48:17.726Z,74.00
2023-02-06T20:51:38.808Z,74.44
2023-02-06T20:55:02.360Z,73.66
2023-02-06T20:58:23.527Z,73.07
2023-02-06T21:01:45.451Z,73.04
2023-02-06T21:05:09.645Z,73.35
2023-02-06T21:08:33.560Z,72.87
2023-02-06T21:11:57.618Z,72.65
2023-02-06T21:15:21.417Z,72.29
2023-02-06T21:18:42.926Z,72.10
2023-02-06T21:22:07.108Z,72.25
2023-02-06T21:25:28.650Z,72.56
2023-02-06T21:28:50.248Z,72.14
2023-02-06T21:32:14.636Z,71.96
2023-02-06T21:35:37.112Z,71.89
2023-02-06T21:39:00.964Z,72.11
2023-02-06T21:42:26.433Z,71.88
2023-02-06T21:45:50.128Z,71.71
2023-02-06T21:49:11.871Z,72.49
2023-02-06T21:52:32.654Z,72.09
2023-02-06T21:55:55.943Z,72.58
2023-02-06T21:59:16.957Z,72.55
2023-02-06T22:02:37.607Z,72.25
2023-02-06T22:06:12.710Z,72.07
2023-02-06T22:09:33.662Z,71.98
2023-02-06T22:12:57.097Z,71.84
2023-02-06T22:16:21.804Z,72.50
2023-02-06T22:19:42.716Z,72.35
2023-02-06T22:23:06.664Z,72.04
2023-02-06T22:26:30.353Z,72.49
2023-02-06T22:29:53.618Z,72.50
2023-02-06T22:33:14.276Z,72.45
2023-02-06T22:36:38.034Z,72.30
2023-02-06T22:39:59.283Z,71.75
2023-02-06T22:43:19.975Z,72.07
2023-02-06T22:46:43.478Z,72.61
2023-02-06T22:50:04.108Z,71.99
2023-02-06T22:53:35.160Z,72.41
2023-02-06T22:56:55.857Z,72.07
2023-02-06T23:00:18.697Z,71.62
2023-02-06T23:03:41.997Z,71.95
2023-02-06T23:07:06.183Z,72.18
2023-02-06T23:10:33.014Z,72.63
2023-02-06T23:13:56.401Z,72.06
2023-02-06T23:17:17.085Z,72.03
2023-02-06T23:20:42.016Z,73.25
2023-02-06T23:24:03.232Z,72.67
2023-02-06T23:27:25.518Z,73.25
2023-02-06T23:30:46.324Z,72.71
2023-02-06T23:34:07.325Z,73.25
2023-02-06T23:37:30.622Z,75.22
2023-02-06T23:40:51.600Z,75.84
2023-02-06T23:44:18.358Z,75.33
2023-02-06T23:47:39.778Z,76.02
2023-02-06T23:51:00.781Z,76.14
2023-02-06T23:54:24.640Z,74.39
2023-02-06T23:57:45.387Z,72.82
